sensor_id;sensor_type;location;lat;lon;timestamp;P1;durP1;ratioP1;P2;durP2;ratioP2
84048;SDS011;74136;51.684;7.862;2024-02-23T00:01:44;3.00;;;0.35;;
84048;SDS011;74136;51.684;7.862;2024-02-23T00:04:11;1.27;;;0.40;;
84048;SDS011;74136;51.684;7.862;2024-02-23T00:06:37;1.15;;;0.22;;
84048;SDS011;74136;51.684;7.862;2024-02-23T00:09:03;1.05;;;0.40;;
84048;SDS011;74136;51.684;7.862;2024-02-23T00:11:30;0.98;;;0.50;;
84048;SDS011;74136;51.684;7.862;2024-02-23T00:13:58;0.75;;;0.45;;
84048;SDS011;74136;51.684;7.862;2024-02-23T00:16:24;1.98;;;0.50;;
84048;SDS011;74136;51.684;7.862;2024-02-23T00:18:52;3.45;;;0.90;;
84048;SDS011;74136;51.684;7.862;2024-02-23T00:21:18;2.42;;;0.88;;
84048;SDS011;74136;51.684;7.862;2024-02-23T00:23:45;2.38;;;1.23;;
84048;SDS011;74136;51.684;7.862;2024-02-23T00:26:11;1.70;;;1.20;;
84048;SDS011;74136;51.684;7.862;2024-02-23T00:28:37;2.85;;;1.60;;
84048;SDS011;74136;51.684;7.862;2024-02-23T00:31:03;1.63;;;1.17;;
84048;SDS011;74136;51.684;7.862;2024-02-23T00:33:29;1.38;;;1.00;;
84048;SDS011;74136;51.684;7.862;2024-02-23T00:35:56;1.20;;;1.00;;
84048;SDS011;74136;51.684;7.862;2024-02-23T00:38:22;1.90;;;1.00;;
84048;SDS011;74136;51.684;7.862;2024-02-23T00:40:48;1.92;;;1.00;;
84048;SDS011;74136;51.684;7.862;2024-02-23T00:43:14;1.90;;;0.65;;
84048;SDS011;74136;51.684;7.862;2024-02-23T00:45:40;1.80;;;0.90;;
84048;SDS011;74136;51.684;7.862;2024-02-23T00:48:07;2.03;;;1.02;;
84048;SDS011;74136;51.684;7.862;2024-02-23T00:50:33;1.38;;;1.00;;
84048;SDS011;74136;51.684;7.862;2024-02-23T00:52:59;1.85;;;1.27;;
84048;SDS011;74136;51.684;7.862;2024-02-23T00:55:25;2.00;;;1.17;;
84048;SDS011;74136;51.684;7.862;2024-02-23T00:57:52;3.25;;;1.15;;
84048;SDS011;74136;51.684;7.862;2024-02-23T01:00:18;2.00;;;1.42;;
84048;SDS011;74136;51.684;7.862;2024-02-23T01:02:45;1.42;;;1.10;;
84048;SDS011;74136;51.684;7.862;2024-02-23T01:05:11;2.00;;;1.40;;
84048;SDS011;74136;51.684;7.862;2024-02-23T01:07:37;2.85;;;1.80;;
84048;SDS011;74136;51.684;7.862;2024-02-23T01:10:03;4.05;;;1.88;;
84048;SDS011;74136;51.684;7.862;2024-02-23T01:12:30;2.30;;;1.83;;
84048;SDS011;74136;51.684;7.862;2024-02-23T01:14:56;3.03;;;2.00;;
84048;SDS011;74136;51.684;7.862;2024-02-23T01:17:22;2.72;;;1.50;;
84048;SDS011;74136;51.684;7.862;2024-02-23T01:19:48;3.10;;;0.73;;
84048;SDS011;74136;51.684;7.862;2024-02-23T01:22:15;2.92;;;1.27;;
84048;SDS011;74136;51.684;7.862;2024-02-23T01:24:41;3.85;;;1.30;;
84048;SDS011;74136;51.684;7.862;2024-02-23T01:27:07;1.70;;;1.02;;
84048;SDS011;74136;51.684;7.862;2024-02-23T01:29:34;2.15;;;0.95;;
84048;SDS011;74136;51.684;7.862;2024-02-23T01:32:00;2.15;;;0.68;;
84048;SDS011;74136;51.684;7.862;2024-02-23T01:34:27;2.30;;;0.68;;
84048;SDS011;74136;51.684;7.862;2024-02-23T01:36:53;1.75;;;0.52;;
84048;SDS011;74136;51.684;7.862;2024-02-23T01:39:19;2.25;;;1.13;;
84048;SDS011;74136;51.684;7.862;2024-02-23T01:41:46;1.38;;;0.98;;
84048;SDS011;74136;51.684;7.862;2024-02-23T01:44:12;1.50;;;0.98;;
84048;SDS011;74136;51.684;7.862;2024-02-23T01:46:38;1.70;;;1.25;;
84048;SDS011;74136;51.684;7.862;2024-02-23T01:49:05;1.42;;;0.82;;
84048;SDS011;74136;51.684;7.862;2024-02-23T01:51:33;3.20;;;0.93;;
84048;SDS011;74136;51.684;7.862;2024-02-23T01:54:01;2.15;;;0.73;;
84048;SDS011;74136;51.684;7.862;2024-02-23T01:56:28;2.58;;;0.82;;
84048;SDS011;74136;51.684;7.862;2024-02-23T01:58:55;2.38;;;0.80;;
84048;SDS011;74136;51.684;7.862;2024-02-23T02:01:21;3.08;;;0.90;;
84048;SDS011;74136;51.684;7.862;2024-02-23T02:03:48;2.08;;;0.77;;
84048;SDS011;74136;51.684;7.862;2024-02-23T02:06:14;2.08;;;0.80;;
84048;SDS011;74136;51.684;7.862;2024-02-23T02:08:41;3.17;;;1.23;;
84048;SDS011;74136;51.684;7.862;2024-02-23T02:11:07;1.83;;;0.80;;
84048;SDS011;74136;51.684;7.862;2024-02-23T02:13:33;1.70;;;0.75;;
84048;SDS011;74136;51.684;7.862;2024-02-23T02:16:00;2.08;;;0.90;;
84048;SDS011;74136;51.684;7.862;2024-02-23T02:18:28;1.60;;;0.65;;
84048;SDS011;74136;51.684;7.862;2024-02-23T02:20:55;1.42;;;0.70;;
84048;SDS011;74136;51.684;7.862;2024-02-23T02:23:26;1.15;;;0.65;;
84048;SDS011;74136;51.684;7.862;2024-02-23T02:25:53;3.63;;;1.30;;
84048;SDS011;74136;51.684;7.862;2024-02-23T02:28:22;2.15;;;0.80;;
84048;SDS011;74136;51.684;7.862;2024-02-23T02:30:53;2.35;;;0.60;;
84048;SDS011;74136;51.684;7.862;2024-02-23T02:33:19;3.08;;;0.68;;
84048;SDS011;74136;51.684;7.862;2024-02-23T02:35:46;2.83;;;0.63;;
84048;SDS011;74136;51.684;7.862;2024-02-23T02:38:12;3.13;;;0.80;;
84048;SDS011;74136;51.684;7.862;2024-02-23T02:40:39;2.72;;;0.60;;
84048;SDS011;74136;51.684;7.862;2024-02-23T02:43:05;2.90;;;0.73;;
84048;SDS011;74136;51.684;7.862;2024-02-23T02:45:32;1.10;;;0.65;;
84048;SDS011;74136;51.684;7.862;2024-02-23T02:48:01;2.45;;;1.10;;
84048;SDS011;74136;51.684;7.862;2024-02-23T02:50:29;1.65;;;0.70;;
84048;SDS011;74136;51.684;7.862;2024-02-23T02:52:55;5.40;;;1.20;;
84048;SDS011;74136;51.684;7.862;2024-02-23T02:55:21;3.03;;;1.00;;
84048;SDS011;74136;51.684;7.862;2024-02-23T02:57:47;4.40;;;0.80;;
84048;SDS011;74136;51.684;7.862;2024-02-23T03:00:13;4.38;;;0.95;;
84048;SDS011;74136;51.684;7.862;2024-02-23T03:02:40;7.13;;;0.90;;
84048;SDS011;74136;51.684;7.862;2024-02-23T03:05:06;4.07;;;0.65;;
84048;SDS011;74136;51.684;7.862;2024-02-23T03:07:33;2.22;;;0.63;;
84048;SDS011;74136;51.684;7.862;2024-02-23T03:09:59;4.13;;;0.82;;
84048;SDS011;74136;51.684;7.862;2024-02-23T03:12:25;4.43;;;0.50;;
84048;SDS011;74136;51.684;7.862;2024-02-23T03:14:51;5.65;;;0.70;;
84048;SDS011;74136;51.684;7.862;2024-02-23T03:17:17;4.90;;;0.70;;
84048;SDS011;74136;51.684;7.862;2024-02-23T03:19:44;6.53;;;0.73;;
84048;SDS011;74136;51.684;7.862;2024-02-23T03:22:10;1.95;;;0.50;;
84048;SDS011;74136;51.684;7.862;2024-02-23T03:24:36;2.80;;;0.52;;
84048;SDS011;74136;51.684;7.862;2024-02-23T03:27:03;1.55;;;0.60;;
84048;SDS011;74136;51.684;7.862;2024-02-23T03:29:29;3.75;;;0.80;;
84048;SDS011;74136;51.684;7.862;2024-02-23T03:31:55;2.78;;;0.50;;
84048;SDS011;74136;51.684;7.862;2024-02-23T03:34:22;2.55;;;0.52;;
84048;SDS011;74136;51.684;7.862;2024-02-23T03:36:48;1.80;;;0.70;;
84048;SDS011;74136;51.684;7.862;2024-02-23T03:39:15;3.75;;;0.90;;
84048;SDS011;74136;51.684;7.862;2024-02-23T03:41:41;2.95;;;0.60;;
84048;SDS011;74136;51.684;7.862;2024-02-23T03:44:07;2.47;;;0.70;;
84048;SDS011;74136;51.684;7.862;2024-02-23T03:46:33;3.45;;;0.50;;
84048;SDS011;74136;51.684;7.862;2024-02-23T03:49:00;2.28;;;0.63;;
84048;SDS011;74136;51.684;7.862;2024-02-23T03:51:27;5.35;;;1.67;;
84048;SDS011;74136;51.684;7.862;2024-02-23T03:53:53;3.78;;;0.60;;
84048;SDS011;74136;51.684;7.862;2024-02-23T03:56:20;4.72;;;0.80;;
84048;SDS011;74136;51.684;7.862;2024-02-23T03:58:46;3.78;;;0.57;;
84048;SDS011;74136;51.684;7.862;2024-02-23T04:01:12;2.92;;;0.60;;
84048;SDS011;74136;51.684;7.862;2024-02-23T04:03:39;3.13;;;0.60;;
84048;SDS011;74136;51.684;7.862;2024-02-23T04:06:06;6.30;;;0.80;;
84048;SDS011;74136;51.684;7.862;2024-02-23T04:08:33;2.70;;;0.70;;
84048;SDS011;74136;51.684;7.862;2024-02-23T04:10:59;2.97;;;0.90;;
84048;SDS011;74136;51.684;7.862;2024-02-23T04:13:26;5.50;;;0.70;;
84048;SDS011;74136;51.684;7.862;2024-02-23T04:15:52;6.07;;;1.13;;
84048;SDS011;74136;51.684;7.862;2024-02-23T04:18:18;4.65;;;0.70;;
84048;SDS011;74136;51.684;7.862;2024-02-23T04:20:44;3.08;;;0.82;;
84048;SDS011;74136;51.684;7.862;2024-02-23T04:23:10;3.45;;;1.23;;
84048;SDS011;74136;51.684;7.862;2024-02-23T04:25:37;3.60;;;1.27;;
84048;SDS011;74136;51.684;7.862;2024-02-23T04:28:03;3.70;;;1.05;;
84048;SDS011;74136;51.684;7.862;2024-02-23T04:30:29;5.80;;;1.35;;
84048;SDS011;74136;51.684;7.862;2024-02-23T04:32:56;3.42;;;1.13;;
84048;SDS011;74136;51.684;7.862;2024-02-23T04:35:22;3.92;;;1.20;;
84048;SDS011;74136;51.684;7.862;2024-02-23T04:37:48;2.75;;;1.40;;
84048;SDS011;74136;51.684;7.862;2024-02-23T04:40:15;4.10;;;1.42;;
84048;SDS011;74136;51.684;7.862;2024-02-23T04:42:43;4.80;;;1.27;;
84048;SDS011;74136;51.684;7.862;2024-02-23T04:45:09;4.45;;;1.48;;
84048;SDS011;74136;51.684;7.862;2024-02-23T04:47:36;3.50;;;1.42;;
84048;SDS011;74136;51.684;7.862;2024-02-23T04:50:02;2.97;;;1.60;;
84048;SDS011;74136;51.684;7.862;2024-02-23T04:52:29;5.70;;;1.20;;
84048;SDS011;74136;51.684;7.862;2024-02-23T04:54:55;3.85;;;1.50;;
84048;SDS011;74136;51.684;7.862;2024-02-23T04:57:21;4.47;;;1.55;;
84048;SDS011;74136;51.684;7.862;2024-02-23T04:59:48;5.53;;;1.13;;
84048;SDS011;74136;51.684;7.862;2024-02-23T05:02:14;6.20;;;1.50;;
84048;SDS011;74136;51.684;7.862;2024-02-23T05:04:40;4.75;;;1.20;;
84048;SDS011;74136;51.684;7.862;2024-02-23T05:07:06;4.70;;;0.90;;
84048;SDS011;74136;51.684;7.862;2024-02-23T05:09:33;4.75;;;1.20;;
84048;SDS011;74136;51.684;7.862;2024-02-23T05:12:00;2.22;;;0.70;;
84048;SDS011;74136;51.684;7.862;2024-02-23T05:14:27;4.72;;;1.00;;
84048;SDS011;74136;51.684;7.862;2024-02-23T05:16:53;3.63;;;0.82;;
84048;SDS011;74136;51.684;7.862;2024-02-23T05:19:19;4.57;;;0.90;;
84048;SDS011;74136;51.684;7.862;2024-02-23T05:21:45;3.42;;;0.95;;
84048;SDS011;74136;51.684;7.862;2024-02-23T05:24:11;2.67;;;0.70;;
84048;SDS011;74136;51.684;7.862;2024-02-23T05:26:38;3.47;;;0.60;;
84048;SDS011;74136;51.684;7.862;2024-02-23T05:29:04;3.03;;;0.60;;
84048;SDS011;74136;51.684;7.862;2024-02-23T05:31:43;4.88;;;0.70;;
84048;SDS011;74136;51.684;7.862;2024-02-23T05:34:12;2.92;;;0.80;;
84048;SDS011;74136;51.684;7.862;2024-02-23T05:36:39;2.75;;;0.63;;
84048;SDS011;74136;51.684;7.862;2024-02-23T05:39:05;3.38;;;0.70;;
84048;SDS011;74136;51.684;7.862;2024-02-23T05:41:33;3.75;;;0.90;;
84048;SDS011;74136;51.684;7.862;2024-02-23T05:43:59;3.70;;;0.70;;
84048;SDS011;74136;51.684;7.862;2024-02-23T05:46:26;7.85;;;1.38;;
84048;SDS011;74136;51.684;7.862;2024-02-23T05:48:52;4.03;;;0.50;;
84048;SDS011;74136;51.684;7.862;2024-02-23T05:51:18;2.95;;;0.40;;
84048;SDS011;74136;51.684;7.862;2024-02-23T05:53:45;8.00;;;0.70;;
84048;SDS011;74136;51.684;7.862;2024-02-23T05:56:11;5.45;;;0.70;;
84048;SDS011;74136;51.684;7.862;2024-02-23T05:58:37;3.55;;;0.70;;
84048;SDS011;74136;51.684;7.862;2024-02-23T06:01:04;4.15;;;0.60;;
84048;SDS011;74136;51.684;7.862;2024-02-23T06:03:30;4.70;;;0.52;;
84048;SDS011;74136;51.684;7.862;2024-02-23T06:05:56;5.97;;;0.65;;
84048;SDS011;74136;51.684;7.862;2024-02-23T06:08:23;4.47;;;0.55;;
84048;SDS011;74136;51.684;7.862;2024-02-23T06:10:49;6.03;;;0.60;;
84048;SDS011;74136;51.684;7.862;2024-02-23T06:13:15;2.20;;;0.60;;
84048;SDS011;74136;51.684;7.862;2024-02-23T06:15:41;3.75;;;0.65;;
84048;SDS011;74136;51.684;7.862;2024-02-23T06:18:08;4.63;;;0.85;;
84048;SDS011;74136;51.684;7.862;2024-02-23T06:20:34;4.38;;;0.80;;
84048;SDS011;74136;51.684;7.862;2024-02-23T06:23:00;3.35;;;0.63;;
84048;SDS011;74136;51.684;7.862;2024-02-23T06:25:27;3.83;;;0.50;;
84048;SDS011;74136;51.684;7.862;2024-02-23T06:27:53;3.88;;;0.60;;
84048;SDS011;74136;51.684;7.862;2024-02-23T06:30:19;3.08;;;0.93;;
84048;SDS011;74136;51.684;7.862;2024-02-23T06:32:46;5.25;;;0.70;;
84048;SDS011;74136;51.684;7.862;2024-02-23T06:35:12;3.97;;;0.50;;
84048;SDS011;74136;51.684;7.862;2024-02-23T06:37:39;8.35;;;0.80;;
84048;SDS011;74136;51.684;7.862;2024-02-23T06:40:06;5.18;;;0.60;;
84048;SDS011;74136;51.684;7.862;2024-02-23T06:42:33;7.25;;;0.75;;
84048;SDS011;74136;51.684;7.862;2024-02-23T06:45:00;3.65;;;0.75;;
84048;SDS011;74136;51.684;7.862;2024-02-23T06:47:27;2.92;;;0.60;;
84048;SDS011;74136;51.684;7.862;2024-02-23T06:49:53;2.35;;;0.40;;
84048;SDS011;74136;51.684;7.862;2024-02-23T06:52:19;5.18;;;0.77;;
84048;SDS011;74136;51.684;7.862;2024-02-23T06:54:45;8.68;;;0.80;;
84048;SDS011;74136;51.684;7.862;2024-02-23T06:57:12;4.20;;;0.73;;
84048;SDS011;74136;51.684;7.862;2024-02-23T06:59:38;4.15;;;1.05;;
84048;SDS011;74136;51.684;7.862;2024-02-23T07:02:04;5.82;;;0.73;;
84048;SDS011;74136;51.684;7.862;2024-02-23T07:04:30;4.60;;;0.55;;
84048;SDS011;74136;51.684;7.862;2024-02-23T07:06:57;2.22;;;0.47;;
84048;SDS011;74136;51.684;7.862;2024-02-23T07:09:23;2.97;;;0.60;;
84048;SDS011;74136;51.684;7.862;2024-02-23T07:11:50;4.68;;;0.60;;
84048;SDS011;74136;51.684;7.862;2024-02-23T07:14:16;4.78;;;0.50;;
84048;SDS011;74136;51.684;7.862;2024-02-23T07:16:43;4.70;;;0.47;;
84048;SDS011;74136;51.684;7.862;2024-02-23T07:19:09;8.18;;;0.65;;
84048;SDS011;74136;51.684;7.862;2024-02-23T07:21:35;2.10;;;0.50;;
84048;SDS011;74136;51.684;7.862;2024-02-23T07:24:02;9.27;;;0.93;;
84048;SDS011;74136;51.684;7.862;2024-02-23T07:26:28;2.88;;;0.50;;
84048;SDS011;74136;51.684;7.862;2024-02-23T07:28:55;3.40;;;0.50;;
84048;SDS011;74136;51.684;7.862;2024-02-23T07:31:21;5.95;;;0.80;;
84048;SDS011;74136;51.684;7.862;2024-02-23T07:33:47;6.22;;;0.75;;
84048;SDS011;74136;51.684;7.862;2024-02-23T07:36:17;3.50;;;0.50;;
84048;SDS011;74136;51.684;7.862;2024-02-23T07:38:43;2.53;;;0.52;;
84048;SDS011;74136;51.684;7.862;2024-02-23T07:41:11;3.13;;;0.85;;
84048;SDS011;74136;51.684;7.862;2024-02-23T07:43:39;3.60;;;0.60;;
84048;SDS011;74136;51.684;7.862;2024-02-23T07:46:05;3.95;;;0.52;;
84048;SDS011;74136;51.684;7.862;2024-02-23T07:48:35;4.65;;;0.70;;
84048;SDS011;74136;51.684;7.862;2024-02-23T07:51:02;4.63;;;0.47;;
84048;SDS011;74136;51.684;7.862;2024-02-23T07:53:29;3.47;;;0.60;;
84048;SDS011;74136;51.684;7.862;2024-02-23T07:55:55;4.10;;;0.50;;
84048;SDS011;74136;51.684;7.862;2024-02-23T07:58:25;3.50;;;0.50;;
84048;SDS011;74136;51.684;7.862;2024-02-23T08:00:54;2.88;;;0.47;;
84048;SDS011;74136;51.684;7.862;2024-02-23T08:03:21;4.53;;;0.60;;
84048;SDS011;74136;51.684;7.862;2024-02-23T08:05:47;3.70;;;0.40;;
84048;SDS011;74136;51.684;7.862;2024-02-23T08:08:13;3.22;;;0.60;;
84048;SDS011;74136;51.684;7.862;2024-02-23T08:10:40;6.65;;;1.02;;
84048;SDS011;74136;51.684;7.862;2024-02-23T08:13:06;5.55;;;0.60;;
84048;SDS011;74136;51.684;7.862;2024-02-23T08:15:32;5.25;;;0.50;;
84048;SDS011;74136;51.684;7.862;2024-02-23T08:17:58;2.03;;;0.22;;
84048;SDS011;74136;51.684;7.862;2024-02-23T08:20:24;4.55;;;1.15;;
84048;SDS011;74136;51.684;7.862;2024-02-23T08:22:51;3.38;;;0.40;;
84048;SDS011;74136;51.684;7.862;2024-02-23T08:25:17;4.30;;;0.43;;
84048;SDS011;74136;51.684;7.862;2024-02-23T08:27:44;2.33;;;0.47;;
84048;SDS011;74136;51.684;7.862;2024-02-23T08:30:10;1.65;;;0.38;;
84048;SDS011;74136;51.684;7.862;2024-02-23T08:32:37;3.50;;;0.47;;
84048;SDS011;74136;51.684;7.862;2024-02-23T08:35:03;2.65;;;0.52;;
84048;SDS011;74136;51.684;7.862;2024-02-23T08:37:29;2.75;;;0.43;;
84048;SDS011;74136;51.684;7.862;2024-02-23T08:39:56;1.95;;;0.38;;
84048;SDS011;74136;51.684;7.862;2024-02-23T08:42:22;4.50;;;0.70;;
84048;SDS011;74136;51.684;7.862;2024-02-23T08:44:48;3.95;;;0.70;;
84048;SDS011;74136;51.684;7.862;2024-02-23T08:47:15;4.22;;;0.55;;
84048;SDS011;74136;51.684;7.862;2024-02-23T08:49:41;4.65;;;0.38;;
84048;SDS011;74136;51.684;7.862;2024-02-23T08:52:07;2.17;;;0.50;;
84048;SDS011;74136;51.684;7.862;2024-02-23T08:54:34;3.92;;;0.50;;
84048;SDS011;74136;51.684;7.862;2024-02-23T08:57:00;2.08;;;0.50;;
84048;SDS011;74136;51.684;7.862;2024-02-23T08:59:26;2.13;;;0.43;;
84048;SDS011;74136;51.684;7.862;2024-02-23T09:01:52;4.45;;;0.55;;
84048;SDS011;74136;51.684;7.862;2024-02-23T09:04:19;3.17;;;0.40;;
84048;SDS011;74136;51.684;7.862;2024-02-23T09:06:46;1.60;;;0.52;;
84048;SDS011;74136;51.684;7.862;2024-02-23T09:09:12;4.88;;;0.40;;
84048;SDS011;74136;51.684;7.862;2024-02-23T09:11:38;1.67;;;0.50;;
84048;SDS011;74136;51.684;7.862;2024-02-23T09:14:05;6.03;;;0.80;;
84048;SDS011;74136;51.684;7.862;2024-02-23T09:16:31;4.55;;;0.68;;
84048;SDS011;74136;51.684;7.862;2024-02-23T09:18:57;2.08;;;0.32;;
84048;SDS011;74136;51.684;7.862;2024-02-23T09:21:23;4.53;;;0.70;;
84048;SDS011;74136;51.684;7.862;2024-02-23T09:23:50;5.18;;;0.80;;
84048;SDS011;74136;51.684;7.862;2024-02-23T09:26:16;3.13;;;0.50;;
84048;SDS011;74136;51.684;7.862;2024-02-23T09:28:43;2.17;;;0.50;;
84048;SDS011;74136;51.684;7.862;2024-02-23T09:31:11;5.07;;;0.70;;
84048;SDS011;74136;51.684;7.862;2024-02-23T09:33:37;2.45;;;0.30;;
84048;SDS011;74136;51.684;7.862;2024-02-23T09:36:03;4.85;;;0.70;;
84048;SDS011;74136;51.684;7.862;2024-02-23T09:38:30;3.00;;;0.40;;
84048;SDS011;74136;51.684;7.862;2024-02-23T09:40:58;4.55;;;0.80;;
84048;SDS011;74136;51.684;7.862;2024-02-23T09:43:27;3.20;;;0.50;;
84048;SDS011;74136;51.684;7.862;2024-02-23T09:45:56;4.03;;;0.50;;
84048;SDS011;74136;51.684;7.862;2024-02-23T09:48:23;5.28;;;0.75;;
84048;SDS011;74136;51.684;7.862;2024-02-23T09:50:50;3.20;;;0.70;;
84048;SDS011;74136;51.684;7.862;2024-02-23T09:53:18;3.30;;;0.60;;
84048;SDS011;74136;51.684;7.862;2024-02-23T09:55:47;4.30;;;0.65;;
84048;SDS011;74136;51.684;7.862;2024-02-23T09:58:17;2.20;;;0.38;;
84048;SDS011;74136;51.684;7.862;2024-02-23T10:00:45;3.63;;;0.40;;
84048;SDS011;74136;51.684;7.862;2024-02-23T10:03:12;2.83;;;0.45;;
84048;SDS011;74136;51.684;7.862;2024-02-23T10:05:38;7.07;;;0.60;;
84048;SDS011;74136;51.684;7.862;2024-02-23T10:08:04;3.17;;;0.50;;
84048;SDS011;74136;51.684;7.862;2024-02-23T10:10:34;5.28;;;0.70;;
84048;SDS011;74136;51.684;7.862;2024-02-23T10:13:01;5.63;;;0.80;;
84048;SDS011;74136;51.684;7.862;2024-02-23T10:15:30;3.90;;;0.70;;
84048;SDS011;74136;51.684;7.862;2024-02-23T10:17:59;3.40;;;0.30;;
84048;SDS011;74136;51.684;7.862;2024-02-23T10:20:25;4.85;;;0.40;;
84048;SDS011;74136;51.684;7.862;2024-02-23T10:22:52;3.92;;;0.43;;
84048;SDS011;74136;51.684;7.862;2024-02-23T10:25:19;2.45;;;0.40;;
84048;SDS011;74136;51.684;7.862;2024-02-23T10:27:46;2.50;;;0.32;;
84048;SDS011;74136;51.684;7.862;2024-02-23T10:30:12;4.78;;;1.02;;
84048;SDS011;74136;51.684;7.862;2024-02-23T10:35:09;4.22;;;0.55;;
84048;SDS011;74136;51.684;7.862;2024-02-23T10:37:43;5.07;;;0.40;;
84048;SDS011;74136;51.684;7.862;2024-02-23T10:40:13;2.40;;;0.50;;
84048;SDS011;74136;51.684;7.862;2024-02-23T10:45:16;3.65;;;0.68;;
84048;SDS011;74136;51.684;7.862;2024-02-23T10:47:45;2.97;;;0.63;;
84048;SDS011;74136;51.684;7.862;2024-02-23T10:50:13;4.10;;;0.82;;
84048;SDS011;74136;51.684;7.862;2024-02-23T10:52:41;3.65;;;0.52;;
84048;SDS011;74136;51.684;7.862;2024-02-23T10:55:08;2.60;;;0.40;;
84048;SDS011;74136;51.684;7.862;2024-02-23T10:57:35;1.98;;;0.40;;
84048;SDS011;74136;51.684;7.862;2024-02-23T11:00:02;4.68;;;0.60;;
84048;SDS011;74136;51.684;7.862;2024-02-23T11:02:40;2.38;;;0.45;;
84048;SDS011;74136;51.684;7.862;2024-02-23T11:05:11;4.00;;;0.57;;
84048;SDS011;74136;51.684;7.862;2024-02-23T11:07:40;4.95;;;0.60;;
84048;SDS011;74136;51.684;7.862;2024-02-23T11:10:06;2.58;;;0.73;;
84048;SDS011;74136;51.684;7.862;2024-02-23T11:12:33;3.67;;;0.55;;
84048;SDS011;74136;51.684;7.862;2024-02-23T11:15:01;3.22;;;0.40;;
84048;SDS011;74136;51.684;7.862;2024-02-23T11:17:29;5.78;;;0.65;;
84048;SDS011;74136;51.684;7.862;2024-02-23T11:19:57;2.38;;;0.50;;
84048;SDS011;74136;51.684;7.862;2024-02-23T11:22:26;2.92;;;0.40;;
84048;SDS011;74136;51.684;7.862;2024-02-23T11:27:39;2.67;;;0.85;;
84048;SDS011;74136;51.684;7.862;2024-02-23T11:30:08;3.28;;;0.40;;
84048;SDS011;74136;51.684;7.862;2024-02-23T11:32:46;6.80;;;0.50;;
84048;SDS011;74136;51.684;7.862;2024-02-23T11:35:14;2.83;;;0.50;;
84048;SDS011;74136;51.684;7.862;2024-02-23T11:37:48;2.95;;;0.52;;
84048;SDS011;74136;51.684;7.862;2024-02-23T11:40:15;3.22;;;0.35;;
84048;SDS011;74136;51.684;7.862;2024-02-23T11:42:43;3.75;;;0.52;;
84048;SDS011;74136;51.684;7.862;2024-02-23T11:45:10;2.85;;;0.80;;
84048;SDS011;74136;51.684;7.862;2024-02-23T11:47:37;3.30;;;0.40;;
84048;SDS011;74136;51.684;7.862;2024-02-23T11:50:04;6.10;;;0.65;;
84048;SDS011;74136;51.684;7.862;2024-02-23T11:52:33;3.28;;;0.45;;
84048;SDS011;74136;51.684;7.862;2024-02-23T11:55:00;2.13;;;0.30;;
84048;SDS011;74136;51.684;7.862;2024-02-23T11:57:26;2.60;;;0.52;;
84048;SDS011;74136;51.684;7.862;2024-02-23T11:59:54;3.33;;;0.60;;
84048;SDS011;74136;51.684;7.862;2024-02-23T12:02:20;3.85;;;0.95;;
84048;SDS011;74136;51.684;7.862;2024-02-23T12:04:47;3.17;;;0.70;;
84048;SDS011;74136;51.684;7.862;2024-02-23T12:07:13;5.63;;;0.63;;
84048;SDS011;74136;51.684;7.862;2024-02-23T12:09:39;3.10;;;0.32;;
84048;SDS011;74136;51.684;7.862;2024-02-23T12:12:07;2.08;;;0.50;;
84048;SDS011;74136;51.684;7.862;2024-02-23T12:14:35;4.28;;;0.65;;
84048;SDS011;74136;51.684;7.862;2024-02-23T12:17:02;3.22;;;0.40;;
84048;SDS011;74136;51.684;7.862;2024-02-23T12:19:29;2.92;;;1.20;;
84048;SDS011;74136;51.684;7.862;2024-02-23T12:21:59;3.42;;;0.40;;
84048;SDS011;74136;51.684;7.862;2024-02-23T12:24:27;1.67;;;0.35;;
84048;SDS011;74136;51.684;7.862;2024-02-23T12:26:54;2.38;;;0.98;;
84048;SDS011;74136;51.684;7.862;2024-02-23T12:29:21;3.10;;;0.35;;
84048;SDS011;74136;51.684;7.862;2024-02-23T12:31:48;5.05;;;0.50;;
84048;SDS011;74136;51.684;7.862;2024-02-23T12:34:14;2.33;;;0.57;;
84048;SDS011;74136;51.684;7.862;2024-02-23T12:36:40;3.67;;;0.65;;
84048;SDS011;74136;51.684;7.862;2024-02-23T12:39:07;6.05;;;0.55;;
84048;SDS011;74136;51.684;7.862;2024-02-23T12:41:33;2.15;;;0.40;;
84048;SDS011;74136;51.684;7.862;2024-02-23T12:44:00;3.40;;;0.65;;
84048;SDS011;74136;51.684;7.862;2024-02-23T12:46:26;3.15;;;0.40;;
84048;SDS011;74136;51.684;7.862;2024-02-23T12:48:52;2.97;;;0.38;;
84048;SDS011;74136;51.684;7.862;2024-02-23T12:51:19;2.08;;;0.47;;
84048;SDS011;74136;51.684;7.862;2024-02-23T12:53:45;2.63;;;0.32;;
84048;SDS011;74136;51.684;7.862;2024-02-23T12:56:12;2.70;;;0.30;;
84048;SDS011;74136;51.684;7.862;2024-02-23T12:58:43;2.20;;;0.40;;
84048;SDS011;74136;51.684;7.862;2024-02-23T13:01:10;4.78;;;0.60;;
84048;SDS011;74136;51.684;7.862;2024-02-23T13:03:37;1.77;;;0.20;;
84048;SDS011;74136;51.684;7.862;2024-02-23T13:06:06;3.67;;;0.32;;
84048;SDS011;74136;51.684;7.862;2024-02-23T13:08:33;3.25;;;0.55;;
84048;SDS011;74136;51.684;7.862;2024-02-23T13:11:00;1.42;;;0.28;;
84048;SDS011;74136;51.684;7.862;2024-02-23T13:13:27;1.77;;;0.47;;
84048;SDS011;74136;51.684;7.862;2024-02-23T13:15:53;3.90;;;0.35;;
84048;SDS011;74136;51.684;7.862;2024-02-23T13:18:20;4.00;;;0.30;;
84048;SDS011;74136;51.684;7.862;2024-02-23T13:20:47;1.73;;;0.35;;
84048;SDS011;74136;51.684;7.862;2024-02-23T13:23:13;3.92;;;0.40;;
84048;SDS011;74136;51.684;7.862;2024-02-23T13:25:41;2.63;;;0.70;;
84048;SDS011;74136;51.684;7.862;2024-02-23T13:28:08;3.95;;;0.98;;
84048;SDS011;74136;51.684;7.862;2024-02-23T13:30:36;4.28;;;0.60;;
84048;SDS011;74136;51.684;7.862;2024-02-23T13:33:03;1.65;;;0.43;;
84048;SDS011;74136;51.684;7.862;2024-02-23T13:35:30;4.00;;;0.63;;
84048;SDS011;74136;51.684;7.862;2024-02-23T13:37:56;3.10;;;0.43;;
84048;SDS011;74136;51.684;7.862;2024-02-23T13:40:23;2.10;;;0.50;;
84048;SDS011;74136;51.684;7.862;2024-02-23T13:42:49;3.35;;;0.40;;
84048;SDS011;74136;51.684;7.862;2024-02-23T13:45:16;3.83;;;0.30;;
84048;SDS011;74136;51.684;7.862;2024-02-23T13:47:43;4.22;;;0.47;;
84048;SDS011;74136;51.684;7.862;2024-02-23T13:50:25;2.42;;;0.45;;
84048;SDS011;74136;51.684;7.862;2024-02-23T13:52:51;5.72;;;0.40;;
84048;SDS011;74136;51.684;7.862;2024-02-23T13:55:18;4.78;;;0.60;;
84048;SDS011;74136;51.684;7.862;2024-02-23T13:57:47;2.78;;;0.40;;
84048;SDS011;74136;51.684;7.862;2024-02-23T14:00:15;4.20;;;0.50;;
84048;SDS011;74136;51.684;7.862;2024-02-23T14:02:42;7.03;;;1.15;;
84048;SDS011;74136;51.684;7.862;2024-02-23T14:05:10;2.65;;;0.47;;
84048;SDS011;74136;51.684;7.862;2024-02-23T14:07:37;3.60;;;0.50;;
84048;SDS011;74136;51.684;7.862;2024-02-23T14:10:03;2.05;;;0.55;;
84048;SDS011;74136;51.684;7.862;2024-02-23T14:12:30;6.00;;;0.60;;
84048;SDS011;74136;51.684;7.862;2024-02-23T14:14:56;2.97;;;1.02;;
84048;SDS011;74136;51.684;7.862;2024-02-23T14:17:22;2.50;;;0.35;;
84048;SDS011;74136;51.684;7.862;2024-02-23T14:19:48;3.35;;;0.50;;
84048;SDS011;74136;51.684;7.862;2024-02-23T14:22:16;1.27;;;0.32;;
84048;SDS011;74136;51.684;7.862;2024-02-23T14:24:43;1.98;;;0.28;;
84048;SDS011;74136;51.684;7.862;2024-02-23T14:27:09;2.67;;;0.32;;
84048;SDS011;74136;51.684;7.862;2024-02-23T14:29:36;2.78;;;0.52;;
84048;SDS011;74136;51.684;7.862;2024-02-23T14:32:02;4.88;;;0.75;;
84048;SDS011;74136;51.684;7.862;2024-02-23T14:34:29;5.35;;;0.52;;
84048;SDS011;74136;51.684;7.862;2024-02-23T14:36:59;2.08;;;0.52;;
84048;SDS011;74136;51.684;7.862;2024-02-23T14:39:25;1.27;;;0.30;;
84048;SDS011;74136;51.684;7.862;2024-02-23T14:41:51;1.77;;;0.40;;
84048;SDS011;74136;51.684;7.862;2024-02-23T14:44:18;4.88;;;0.70;;
84048;SDS011;74136;51.684;7.862;2024-02-23T14:46:44;2.30;;;0.40;;
84048;SDS011;74136;51.684;7.862;2024-02-23T14:49:10;1.83;;;0.55;;
84048;SDS011;74136;51.684;7.862;2024-02-23T14:51:36;3.03;;;0.43;;
84048;SDS011;74136;51.684;7.862;2024-02-23T14:54:03;4.70;;;0.60;;